Sir Seretse Khama International, Botswana

6:05 AM CAT on August 31, 2014 (GMT +0200)
Sir Seretse Khama International | Change Station
CLOSE
Current Station
Airport
Location: Seretse Khama,
Elevation: 3297 ft
Nearby Weather Stations

Elev 3297 ft 24.56 °S, 25.92 °E | Updated 5 minutes ago

Clear
Clear
41 °F
Feels Like 36 °F
N
7
Wind Variable Wind from SE

Today
High -- | Low -- °F
--% Chance of Precip.
Yesterday
High -- | Low -- °F
Precip. -- in
6:29 AM 6:04 PM
Waxing Crescent, 27% visible
Pressure 30.33 in
Visibility -9999.0 miles
Clouds
Windchill 36 °F
Dew Point 16 °F
Humidity 36%
Rainfall 0.00 in
Snow Depth Not available.
UV Not available.
Pollen Not available.
Air Quality Not available.
Flu Activity Not available.
METAR FBSK 310400Z 14006KT CAVOK 05/M09 Q1027 NOSIG

More Conditions Fewer Conditions

Pressure 30.33 in
Visibility -9999.0 miles
Clouds
Windchill 36 °F
Dew Point 16 °F
Humidity 36%
Rainfall 0.00 in
Snow Depth Not available.
UV Not available.
Pollen Not available.
Air Quality Not available.
Flu Activity Not available.
METAR FBSK 310400Z 14006KT CAVOK 05/M09 Q1027 NOSIG

More Conditions Fewer Conditions

10-Day Weather Forecast

Almanac

Astronomy

Aug. 31, 2014 Rise Set
Actual Time 6:29 AM CAT 6:04 PM CAT
Civil Twilight 6:06 AM CAT 6:27 PM CAT
Nautical Twilight 5:39 AM CAT 6:54 PM CAT
Astronomical Twilight 5:13 AM CAT 7:20 PM CAT
Moon 9:55 AM CAT 11:14 PM CAT
Length of Visible Light 12h 21m
Length of Day
11h 35m
Tomorrow will be 1m 21s longer.
Waxing Crescent, 27% of the Moon is Illuminated
Today
Waxing Crescent
Sep 2
First Quarter
Sep 8
Full
Sep 15
Last Quarter
Sep 24
New

Yesterday's Extremes

Country Highs Country Lows

Community

WunderPhotos

Upload Photos

1,748,777 photos uploaded!

Nearby

Snow Depth

Not available.

Earthquake Activity

City Distance Mag. Time & Date
No recent earthquake activity has been reported nearby.
Minimum magnitude displayed is 2.5.

Coastal Water Temperatures

Place Temperature
No Stations Reporting

Nearby Weather Stations